Lena, Louisiana
Current Conditions -  °F | °C
As of 4:53 PM on Saturday 20 Dec 2014 (Local Time) from KAEX Reporting Station
Clear Clear  
Wind Chill: 12°   Ceiling: Unl
Heat Index: 12°   Visibility: 10mi
Dew Point:   Wind: 7mph
Humidity: 69%   Direction: 360°N
Pressure: 30.14"   Gusts: NA
Location:  31.46°N, 92.77°W
Report Text: KAEX 202253Z 36006KT 10SM CLR 12/07 A3014 RMK AO2 SLP212 T01220067
Loading
Personal Weather Stations






























Interactive Weather Map New forecast layout! Learn more

10-Day Weather Forecast

Advertisements
Track Severe Weather on mobile